Time;durP1;ratioP1;P1;durP2;ratioP2;P2;SDS_P1;SDS_P2;PMS_P1;PMS_P2;Temp;Humidity;BMP_temperature;BMP_pressure;BME280_temperature;BME280_humidity;BME280_pressure;Samples;Min_cycle;Max_cycle;Signal;HPM_P1;HPM_P2
2023/10/01 00:01:20;;;;;;;11.27;4.03;;;;;;;;;;5032597;28;20053;-76
2023/10/01 00:03:46;;;;;;;13.70;4.28;;;;;;;;;;5014119;28;20049;-76
2023/10/01 00:06:12;;;;;;;13.80;3.92;;;;;;;;;;5013416;28;20038;-76
2023/10/01 00:08:39;;;;;;;15.27;4.57;;;;;;;;;;5013644;28;20041;-76
2023/10/01 00:11:05;;;;;;;12.63;4.50;;;;;;;;;;5012416;28;20433;-76
2023/10/01 00:13:31;;;;;;;12.55;4.63;;;;;;;;;;5013034;28;20103;-76
2023/10/01 00:15:57;;;;;;;10.00;4.18;;;;;;;;;;5022610;28;20041;-76
2023/10/01 00:18:25;;;;;;;12.85;4.53;;;;;;;;;;5035659;28;20053;-76
2023/10/01 00:20:51;;;;;;;13.15;4.53;;;;;;;;;;5024257;28;20049;-76
2023/10/01 00:23:17;;;;;;;14.88;4.43;;;;;;;;;;5030758;28;20048;-76
2023/10/01 00:25:45;;;;;;;11.52;4.60;;;;;;;;;;5028905;28;20115;-76
2023/10/01 00:28:11;;;;;;;16.40;4.40;;;;;;;;;;5017416;28;20410;-76
2023/10/01 00:30:37;;;;;;;13.80;4.70;;;;;;;;;;5020808;28;20501;-76
2023/10/01 00:33:05;;;;;;;14.55;4.90;;;;;;;;;;5013212;28;20155;-76
2023/10/01 00:35:31;;;;;;;13.45;5.15;;;;;;;;;;5012752;28;20077;-76
2023/10/01 00:37:57;;;;;;;12.63;5.43;;;;;;;;;;5021561;28;20049;-76
2023/10/01 00:40:23;;;;;;;12.93;5.25;;;;;;;;;;5017730;28;20049;-76
2023/10/01 00:42:49;;;;;;;12.73;5.38;;;;;;;;;;5023949;28;20092;-76
2023/10/01 00:45:15;;;;;;;13.85;5.30;;;;;;;;;;5013006;28;20505;-76
2023/10/01 00:47:42;;;;;;;15.52;6.10;;;;;;;;;;5025000;28;20126;-76
2023/10/01 00:50:11;;;;;;;16.73;5.75;;;;;;;;;;5023323;28;20446;-76
2023/10/01 00:52:37;;;;;;;17.15;5.70;;;;;;;;;;5011825;28;20469;-76
2023/10/01 00:55:05;;;;;;;15.38;5.72;;;;;;;;;;5024371;28;20079;-76
2023/10/01 00:57:31;;;;;;;15.32;6.63;;;;;;;;;;5019681;28;20581;-76
2023/10/01 00:59:57;;;;;;;16.00;6.30;;;;;;;;;;5021897;28;20437;-76
2023/10/01 01:02:23;;;;;;;14.77;6.38;;;;;;;;;;5020520;28;20037;-76
2023/10/01 01:05:05;;;;;;;15.05;6.47;;;;;;;;;;5018784;28;20052;-77
2023/10/01 01:07:32;;;;;;;17.35;6.97;;;;;;;;;;5012396;28;20045;-76
2023/10/01 01:10:01;;;;;;;16.88;6.85;;;;;;;;;;5021756;28;20041;-76
2023/10/01 01:12:27;;;;;;;16.13;7.03;;;;;;;;;;5011355;28;20054;-76
2023/10/01 01:14:54;;;;;;;14.57;7.07;;;;;;;;;;5023990;28;20046;-76
2023/10/01 01:17:24;;;;;;;13.52;6.80;;;;;;;;;;5011267;28;20469;-76
2023/10/01 01:19:55;;;;;;;15.77;7.53;;;;;;;;;;5010929;28;20490;-77
2023/10/01 01:22:30;;;;;;;14.63;6.75;;;;;;;;;;5027074;28;20073;-77
2023/10/01 01:25:20;;;;;;;17.90;7.30;;;;;;;;;;5011221;28;20061;-76
2023/10/01 01:27:46;;;;;;;14.40;7.90;;;;;;;;;;5015317;28;20124;-76
2023/10/01 01:30:18;;;;;;;17.50;7.75;;;;;;;;;;5019560;28;20112;-77
2023/10/01 01:32:47;;;;;;;16.25;7.80;;;;;;;;;;5012116;28;20449;-76
2023/10/01 01:35:13;;;;;;;20.17;8.32;;;;;;;;;;5014357;28;20053;-76
2023/10/01 01:37:54;;;;;;;16.73;8.50;;;;;;;;;;5027951;28;20037;-76
2023/10/01 01:40:32;;;;;;;20.33;8.68;;;;;;;;;;5024534;28;20163;-76
2023/10/01 01:43:03;;;;;;;15.70;8.65;;;;;;;;;;5004842;28;20049;-76
2023/10/01 01:45:32;;;;;;;19.55;8.73;;;;;;;;;;5029690;28;20092;-76
2023/10/01 01:48:00;;;;;;;18.52;8.45;;;;;;;;;;5026552;28;20048;-76
2023/10/01 01:50:27;;;;;;;18.02;8.85;;;;;;;;;;5014019;28;20062;-76
2023/10/01 01:52:56;;;;;;;15.90;8.35;;;;;;;;;;5017672;28;20069;-76
2023/10/01 01:55:29;;;;;;;15.65;8.85;;;;;;;;;;5025618;28;20053;-76
2023/10/01 01:58:06;;;;;;;16.90;8.88;;;;;;;;;;5017476;28;20099;-76
2023/10/01 02:00:34;;;;;;;15.50;9.20;;;;;;;;;;5017503;28;20179;-76
2023/10/01 02:03:03;;;;;;;17.65;8.68;;;;;;;;;;5012531;28;20061;-76
2023/10/01 02:05:29;;;;;;;21.05;10.07;;;;;;;;;;5023785;28;20187;-76
2023/10/01 02:08:06;;;;;;;16.75;9.43;;;;;;;;;;5025093;28;20092;-76
2023/10/01 02:10:32;;;;;;;19.77;10.07;;;;;;;;;;5022707;28;20045;-76
2023/10/01 02:12:59;;;;;;;19.95;9.88;;;;;;;;;;5022516;28;20418;-77
2023/10/01 02:15:25;;;;;;;19.02;9.77;;;;;;;;;;5018570;28;20046;-76
2023/10/01 02:17:52;;;;;;;24.35;9.88;;;;;;;;;;5014270;28;20057;-76
2023/10/01 02:20:22;;;;;;;21.02;10.15;;;;;;;;;;5020434;28;20050;-76
2023/10/01 02:22:48;;;;;;;19.58;9.45;;;;;;;;;;5021560;28;20046;-76
2023/10/01 02:25:16;;;;;;;18.23;9.80;;;;;;;;;;5019786;28;20054;-76
2023/10/01 02:28:06;;;;;;;18.45;9.52;;;;;;;;;;5028807;28;20038;-76
2023/10/01 02:30:32;;;;;;;19.77;9.73;;;;;;;;;;5023037;28;20045;-76
2023/10/01 02:33:17;;;;;;;20.83;9.52;;;;;;;;;;5032238;28;20374;-76
2023/10/01 02:35:49;;;;;;;19.87;9.67;;;;;;;;;;5025312;28;20513;-76
2023/10/01 02:41:01;;;;;;;23.77;10.00;;;;;;;;;;5013723;28;20042;-76
2023/10/01 02:43:34;;;;;;;18.70;10.05;;;;;;;;;;5031887;28;20107;-76
2023/10/01 02:46:11;;;;;;;18.95;10.10;;;;;;;;;;5014201;28;20045;-76
2023/10/01 02:48:40;;;;;;;16.63;10.52;;;;;;;;;;5021768;28;20053;-77
2023/10/01 02:51:15;;;;;;;18.17;9.82;;;;;;;;;;5018100;28;20073;-76
2023/10/01 02:56:34;;;;;;;21.00;10.50;;;;;;;;;;5024862;28;20077;-76
2023/10/01 02:59:12;;;;;;;20.15;9.95;;;;;;;;;;5018782;28;20436;-76
2023/10/01 03:01:39;;;;;;;17.75;10.20;;;;;;;;;;5026453;28;20064;-76
2023/10/01 03:04:10;;;;;;;23.10;10.35;;;;;;;;;;5024325;28;20061;-76
2023/10/01 03:06:42;;;;;;;19.33;10.38;;;;;;;;;;5018361;28;20100;-76
2023/10/01 03:09:22;;;;;;;16.08;9.38;;;;;;;;;;5023057;28;20128;-76
2023/10/01 03:11:53;;;;;;;20.40;9.98;;;;;;;;;;5029329;28;20042;-76
2023/10/01 03:14:20;;;;;;;16.08;9.52;;;;;;;;;;5032926;28;20490;-76
2023/10/01 03:16:53;;;;;;;19.40;9.63;;;;;;;;;;5024873;28;20115;-76
2023/10/01 03:19:25;;;;;;;18.05;10.27;;;;;;;;;;5020828;28;20498;-76
2023/10/01 03:24:37;;;;;;;20.08;9.88;;;;;;;;;;5027404;28;20506;-76
2023/10/01 03:27:19;;;;;;;22.33;10.07;;;;;;;;;;5017557;28;20045;-76
2023/10/01 03:29:48;;;;;;;19.08;10.10;;;;;;;;;;5018931;28;20107;-76
2023/10/01 03:32:32;;;;;;;18.58;9.45;;;;;;;;;;5017486;28;20046;-76
2023/10/01 03:35:04;;;;;;;17.73;9.48;;;;;;;;;;5026372;28;20132;-76
2023/10/01 03:37:38;;;;;;;18.65;9.90;;;;;;;;;;5013795;28;20117;-76
2023/10/01 03:40:05;;;;;;;22.13;9.50;;;;;;;;;;5014812;28;20054;-76
2023/10/01 03:42:37;;;;;;;15.90;9.55;;;;;;;;;;5012083;28;20050;-76
2023/10/01 03:47:58;;;;;;;17.65;9.68;;;;;;;;;;5018715;28;20088;-76
2023/10/01 03:50:31;;;;;;;16.63;10.10;;;;;;;;;;5012435;28;20069;-77
2023/10/01 03:52:59;;;;;;;16.20;9.90;;;;;;;;;;5013827;28;20173;-76
2023/10/01 03:55:26;;;;;;;21.17;10.10;;;;;;;;;;5025767;28;20038;-77
2023/10/01 03:58:06;;;;;;;17.30;9.63;;;;;;;;;;5023197;28;20103;-76
2023/10/01 04:00:41;;;;;;;18.25;9.40;;;;;;;;;;5011717;28;20069;-76
2023/10/01 04:03:14;;;;;;;17.15;9.27;;;;;;;;;;5027550;28;20073;-74
2023/10/01 04:05:44;;;;;;;17.50;9.80;;;;;;;;;;5015697;28;20096;-76
2023/10/01 04:08:17;;;;;;;15.35;9.15;;;;;;;;;;5011817;28;20149;-76
2023/10/01 04:10:49;;;;;;;17.13;9.50;;;;;;;;;;5012493;28;20417;-76
2023/10/01 04:13:20;;;;;;;16.48;9.70;;;;;;;;;;5012027;28;20402;-77
2023/10/01 04:15:48;;;;;;;17.40;9.82;;;;;;;;;;5011687;28;20437;-76
2023/10/01 04:21:17;;;;;;;12.80;9.60;;;;;;;;;;5011987;28;20054;-76
2023/10/01 04:23:40;;;;;;;17.63;10.02;;;;;;;;;;5011811;28;20065;-76
2023/10/01 04:26:13;;;;;;;18.88;10.02;;;;;;;;;;5011981;28;20088;-76
2023/10/01 04:28:46;;;;;;;15.98;9.48;;;;;;;;;;5011768;28;20068;-76
2023/10/01 04:31:18;;;;;;;15.52;10.07;;;;;;;;;;5012833;28;20176;-76
2023/10/01 04:33:48;;;;;;;15.23;9.65;;;;;;;;;;5012018;28;20060;-76
2023/10/01 04:36:19;;;;;;;14.02;9.38;;;;;;;;;;5010730;28;20050;-76
2023/10/01 04:38:45;;;;;;;18.30;9.73;;;;;;;;;;5011938;28;20410;-76
2023/10/01 04:41:16;;;;;;;16.77;9.95;;;;;;;;;;5011420;28;20046;-76
2023/10/01 04:46:30;;;;;;;17.13;10.13;;;;;;;;;;5011256;28;20420;-76
2023/10/01 04:48:57;;;;;;;15.52;9.82;;;;;;;;;;5024365;28;20053;-76
2023/10/01 04:51:24;;;;;;;17.73;9.48;;;;;;;;;;5010452;28;20061;-76
2023/10/01 04:53:51;;;;;;;16.85;9.70;;;;;;;;;;5011594;28;20414;-76
2023/10/01 04:56:20;;;;;;;16.30;9.80;;;;;;;;;;5010943;28;20052;-76
2023/10/01 04:58:51;;;;;;;19.65;9.25;;;;;;;;;;5011464;28;20124;-76
2023/10/01 05:01:18;;;;;;;15.50;9.27;;;;;;;;;;5011146;28;20474;-76
2023/10/01 05:03:48;;;;;;;17.88;9.48;;;;;;;;;;5020800;28;20491;-76
2023/10/01 05:06:18;;;;;;;15.50;9.07;;;;;;;;;;5027840;28;20042;-76
2023/10/01 05:08:47;;;;;;;16.83;9.20;;;;;;;;;;5011939;28;20137;-77
2023/10/01 05:11:16;;;;;;;17.65;9.35;;;;;;;;;;5012452;28;20050;-76
2023/10/01 05:13:44;;;;;;;14.73;9.38;;;;;;;;;;5012596;28;20073;-76
2023/10/01 05:16:14;;;;;;;15.10;9.02;;;;;;;;;;5010744;28;20046;-76
2023/10/01 05:18:43;;;;;;;16.80;9.10;;;;;;;;;;5011098;28;20046;-76
2023/10/01 05:21:12;;;;;;;16.48;8.93;;;;;;;;;;5011053;28;20045;-76
2023/10/01 05:23:50;;;;;;;16.27;9.07;;;;;;;;;;5021656;28;20055;-76
2023/10/01 05:26:20;;;;;;;15.45;9.25;;;;;;;;;;5009905;28;20046;-76
2023/10/01 05:28:48;;;;;;;17.17;9.40;;;;;;;;;;5027416;28;20569;-76
2023/10/01 05:31:24;;;;;;;17.05;9.40;;;;;;;;;;5011050;28;20050;-77
2023/10/01 05:33:58;;;;;;;14.73;8.85;;;;;;;;;;5024189;28;20410;-76
2023/10/01 05:36:24;;;;;;;17.05;9.40;;;;;;;;;;5021873;28;20406;-76
2023/10/01 05:38:53;;;;;;;17.73;9.68;;;;;;;;;;5015571;28;20451;-76
2023/10/01 05:41:29;;;;;;;15.45;9.38;;;;;;;;;;5012412;28;20069;-76
2023/10/01 05:44:01;;;;;;;17.23;9.35;;;;;;;;;;5012064;28;20069;-76
2023/10/01 05:46:27;;;;;;;18.05;9.00;;;;;;;;;;5015107;28;20054;-76
2023/10/01 05:48:55;;;;;;;19.15;9.63;;;;;;;;;;5012361;28;20367;-76
2023/10/01 05:51:30;;;;;;;18.58;9.38;;;;;;;;;;5013405;28;20125;-76
2023/10/01 05:53:59;;;;;;;17.00;9.45;;;;;;;;;;5021700;28;20448;-76
2023/10/01 05:56:36;;;;;;;16.98;9.63;;;;;;;;;;5015782;28;20394;-76
2023/10/01 05:59:03;;;;;;;14.95;9.38;;;;;;;;;;5018213;28;20124;-76
2023/10/01 06:01:33;;;;;;;16.35;9.48;;;;;;;;;;5014225;28;20399;-76
2023/10/01 06:04:00;;;;;;;16.35;9.95;;;;;;;;;;5014470;28;20413;-76
2023/10/01 06:06:27;;;;;;;19.95;9.75;;;;;;;;;;5027136;28;20046;-76
2023/10/01 06:08:59;;;;;;;15.80;9.30;;;;;;;;;;5014525;28;20054;-76
2023/10/01 06:11:38;;;;;;;16.92;9.50;;;;;;;;;;5014147;28;20057;-77
2023/10/01 06:14:07;;;;;;;17.52;9.18;;;;;;;;;;5027568;28;20375;-76
2023/10/01 06:16:40;;;;;;;18.42;9.20;;;;;;;;;;5016871;28;20052;-76
2023/10/01 06:19:11;;;;;;;15.18;8.75;;;;;;;;;;5015792;28;20041;-77
2023/10/01 06:21:39;;;;;;;14.45;8.77;;;;;;;;;;4997605;28;20132;-76
2023/10/01 06:24:07;;;;;;;15.82;8.82;;;;;;;;;;5014102;28;20061;-76
2023/10/01 06:26:36;;;;;;;17.15;9.35;;;;;;;;;;5014243;28;20347;-76
2023/10/01 06:29:03;;;;;;;13.63;8.85;;;;;;;;;;5014030;28;20034;-76
2023/10/01 06:31:47;;;;;;;19.65;9.70;;;;;;;;;;5013854;28;20141;-75
2023/10/01 06:34:14;;;;;;;16.90;9.35;;;;;;;;;;5014773;28;20064;-76
2023/10/01 06:36:40;;;;;;;13.93;9.23;;;;;;;;;;5029929;28;20414;-75
2023/10/01 06:39:06;;;;;;;16.65;9.63;;;;;;;;;;5028063;28;20052;-75
2023/10/01 06:41:32;;;;;;;16.52;9.35;;;;;;;;;;5014804;28;20042;-76
2023/10/01 06:44:01;;;;;;;17.15;8.93;;;;;;;;;;5045471;28;20123;-76
2023/10/01 06:46:27;;;;;;;16.88;9.57;;;;;;;;;;5033193;28;20543;-75
2023/10/01 06:48:56;;;;;;;16.15;8.90;;;;;;;;;;5032976;28;20041;-76
2023/10/01 06:51:24;;;;;;;18.35;9.52;;;;;;;;;;5024193;28;20093;-76
2023/10/01 06:54:05;;;;;;;16.08;9.50;;;;;;;;;;5031531;28;20049;-76
2023/10/01 06:56:33;;;;;;;17.63;8.77;;;;;;;;;;5013243;28;20042;-76
2023/10/01 07:02:03;;;;;;;18.98;9.43;;;;;;;;;;5030664;28;20088;-76
2023/10/01 07:04:23;;;;;;;17.63;9.20;;;;;;;;;;5030340;28;20470;-76
2023/10/01 07:06:53;;;;;;;17.80;9.43;;;;;;;;;;5032695;28;20065;-75
2023/10/01 07:09:32;;;;;;;16.13;8.48;;;;;;;;;;5018376;28;20456;-75
2023/10/01 07:11:59;;;;;;;18.38;9.88;;;;;;;;;;5023622;28;20049;-76
2023/10/01 07:14:44;;;;;;;17.05;9.15;;;;;;;;;;5033796;28;20049;-75
2023/10/01 07:17:14;;;;;;;19.88;9.07;;;;;;;;;;5016264;28;20416;-76
2023/10/01 07:19:40;;;;;;;18.40;9.68;;;;;;;;;;5019849;28;20466;-76
2023/10/01 07:22:06;;;;;;;15.60;8.60;;;;;;;;;;5022468;28;20041;-76
2023/10/01 07:24:33;;;;;;;18.83;9.60;;;;;;;;;;5025417;28;20068;-75
2023/10/01 07:27:03;;;;;;;19.25;9.68;;;;;;;;;;5022938;28;20143;-76
2023/10/01 07:29:39;;;;;;;17.98;9.52;;;;;;;;;;5025663;28;20056;-76
2023/10/01 07:32:12;;;;;;;17.60;9.43;;;;;;;;;;5022519;28;20132;-76
2023/10/01 07:34:53;;;;;;;15.13;9.02;;;;;;;;;;5015002;28;20034;-76
2023/10/01 07:37:37;;;;;;;17.83;8.98;;;;;;;;;;5012372;28;20135;-76
2023/10/01 07:40:09;;;;;;;19.55;9.20;;;;;;;;;;5003499;28;20375;-76
2023/10/01 07:42:47;;;;;;;17.30;9.30;;;;;;;;;;5029118;28;20187;-76
2023/10/01 07:45:16;;;;;;;16.55;8.88;;;;;;;;;;5015046;28;20061;-76
2023/10/01 07:47:45;;;;;;;17.52;9.00;;;;;;;;;;5020155;28;20046;-75
2023/10/01 07:50:16;;;;;;;20.88;9.07;;;;;;;;;;5033268;28;20061;-75
2023/10/01 07:52:44;;;;;;;16.90;8.45;;;;;;;;;;5013442;28;20483;-75
2023/10/01 07:58:18;;;;;;;18.38;8.80;;;;;;;;;;5022252;28;20129;-76
2023/10/01 08:00:43;;;;;;;;;;;;;;;;;;5025179;28;20410;-76
2023/10/01 08:03:32;;;;;;;16.80;8.50;;;;;;;;;;5031581;28;19921;-76
2023/10/01 08:06:25;;;;;;;17.42;8.55;;;;;;;;;;5032207;28;20112;-75
2023/10/01 08:08:47;;;;;;;18.40;8.75;;;;;;;;;;5029100;28;20045;-75
2023/10/01 08:13:58;;;;;;;19.05;8.40;;;;;;;;;;5016706;28;20046;-75
2023/10/01 08:16:25;;;;;;;19.00;8.57;;;;;;;;;;5012807;28;20045;-75
2023/10/01 08:18:57;;;;;;;17.88;8.38;;;;;;;;;;5011925;28;20135;-76
2023/10/01 08:21:36;;;;;;;17.17;8.63;;;;;;;;;;5031762;28;20076;-75
2023/10/01 08:24:09;;;;;;;17.65;8.20;;;;;;;;;;5017115;28;20252;-75
2023/10/01 08:26:49;;;;;;;17.98;8.75;;;;;;;;;;5011535;28;20168;-76
2023/10/01 08:29:16;;;;;;;17.05;8.57;;;;;;;;;;5011688;28;20077;-76
2023/10/01 08:32:08;;;;;;;16.13;8.45;;;;;;;;;;5011558;28;20391;-75
2023/10/01 08:34:35;;;;;;;17.85;8.70;;;;;;;;;;5011518;28;20133;-76
2023/10/01 08:37:06;;;;;;;15.50;8.10;;;;;;;;;;5011515;28;20034;-76
2023/10/01 08:39:47;;;;;;;17.45;8.55;;;;;;;;;;4995399;28;20041;-76
2023/10/01 08:42:13;;;;;;;19.20;8.68;;;;;;;;;;5024322;28;20052;-76
2023/10/01 08:44:44;;;;;;;18.02;8.43;;;;;;;;;;5019513;28;20045;-75
2023/10/01 08:47:21;;;;;;;17.83;8.50;;;;;;;;;;5015370;28;20056;-75
2023/10/01 08:49:51;;;;;;;18.23;8.45;;;;;;;;;;5017572;28;20051;-76
2023/10/01 08:52:21;;;;;;;17.60;8.48;;;;;;;;;;5012192;28;20048;-76
2023/10/01 08:54:49;;;;;;;16.65;8.57;;;;;;;;;;5019906;28;20041;-75
2023/10/01 08:57:17;;;;;;;14.00;8.50;;;;;;;;;;5013357;28;20120;-76
2023/10/01 08:59:44;;;;;;;14.70;8.18;;;;;;;;;;5013212;28;20116;-76
2023/10/01 09:02:23;;;;;;;14.02;7.78;;;;;;;;;;5014773;28;20045;-76
2023/10/01 09:04:49;;;;;;;19.38;8.70;;;;;;;;;;5011201;28;20061;-75
2023/10/01 09:07:18;;;;;;;16.38;7.93;;;;;;;;;;5013946;28;20037;-75
2023/10/01 09:09:54;;;;;;;16.75;8.18;;;;;;;;;;5011875;28;20152;-75
2023/10/01 09:12:20;;;;;;;20.42;8.38;;;;;;;;;;5012257;28;20124;-76
2023/10/01 09:14:47;;;;;;;14.52;7.93;;;;;;;;;;5012220;28;20054;-76
2023/10/01 09:17:26;;;;;;;16.75;7.60;;;;;;;;;;5011324;28;20513;-75
2023/10/01 09:19:52;;;;;;;14.98;7.50;;;;;;;;;;5027502;28;20038;-76
2023/10/01 09:23:02;;;;;;;17.02;7.10;;;;;;;;;;5012240;28;20045;-76
2023/10/01 09:25:19;;;;;;;18.75;7.50;;;;;;;;;;5018780;28;20046;-75
2023/10/01 09:28:20;;;;;;;19.75;7.45;;;;;;;;;;5015910;28;20061;-76
2023/10/01 09:31:02;;;;;;;16.23;6.95;;;;;;;;;;5015102;28;20090;-76
2023/10/01 09:33:31;;;;;;;15.45;6.88;;;;;;;;;;5031640;28;20049;-76
2023/10/01 09:35:59;;;;;;;18.38;7.43;;;;;;;;;;5024101;28;20049;-76
2023/10/01 09:38:28;;;;;;;11.82;6.55;;;;;;;;;;5016021;28;20061;-77
2023/10/01 09:40:59;;;;;;;15.30;7.30;;;;;;;;;;5024255;28;20164;-76
2023/10/01 09:43:30;;;;;;;18.90;7.50;;;;;;;;;;5014800;28;20560;-77
2023/10/01 09:45:58;;;;;;;19.45;7.57;;;;;;;;;;5017261;28;20085;-77
2023/10/01 09:48:29;;;;;;;18.67;7.93;;;;;;;;;;5021848;28;20192;-76
2023/10/01 09:51:08;;;;;;;18.02;7.47;;;;;;;;;;5021469;28;20069;-76
2023/10/01 09:53:56;;;;;;;15.93;6.97;;;;;;;;;;5030776;28;20046;-76
2023/10/01 09:56:26;;;;;;;18.58;7.80;;;;;;;;;;5018776;28;20038;-77
2023/10/01 09:58:58;;;;;;;19.45;7.95;;;;;;;;;;5004847;28;20049;-76
2023/10/01 10:01:27;;;;;;;20.98;8.30;;;;;;;;;;5017412;28;20049;-77
2023/10/01 10:03:56;;;;;;;17.33;7.32;;;;;;;;;;5025442;28;20058;-75
2023/10/01 10:06:25;;;;;;;18.35;7.55;;;;;;;;;;5027781;28;20121;-75
2023/10/01 10:09:03;;;;;;;18.90;7.47;;;;;;;;;;5013753;28;20057;-74
2023/10/01 10:11:29;;;;;;;17.33;7.57;;;;;;;;;;5013774;28;20123;-75
2023/10/01 10:13:57;;;;;;;16.73;7.15;;;;;;;;;;5037289;28;20049;-76
2023/10/01 10:16:31;;;;;;;19.13;7.82;;;;;;;;;;5017599;28;20046;-75
2023/10/01 10:19:09;;;;;;;16.15;6.85;;;;;;;;;;5015725;28;20074;-74
2023/10/01 10:24:29;;;;;;;19.15;6.88;;;;;;;;;;5029905;28;20056;-75
2023/10/01 10:27:09;;;;;;;15.32;6.20;;;;;;;;;;5017396;28;20050;-75
2023/10/01 10:29:49;;;;;;;16.92;7.25;;;;;;;;;;5015084;28;20410;-74
2023/10/01 10:32:15;;;;;;;17.17;6.93;;;;;;;;;;5013765;28;20058;-75
2023/10/01 10:35:03;;;;;;;16.73;7.07;;;;;;;;;;5012518;28;20204;-73
2023/10/01 10:37:39;;;;;;;16.13;6.85;;;;;;;;;;5013478;28;20056;-73
2023/10/01 10:40:27;;;;;;;15.45;6.68;;;;;;;;;;5021132;28;20107;-73
2023/10/01 10:43:02;;;;;;;16.33;7.43;;;;;;;;;;5012743;28;20152;-75
2023/10/01 10:45:46;;;;;;;16.17;7.05;;;;;;;;;;5030079;28;20192;-75
2023/10/01 10:48:21;;;;;;;18.95;7.45;;;;;;;;;;5012401;28;20041;-75
2023/10/01 10:50:54;;;;;;;14.55;6.95;;;;;;;;;;5012893;28;20062;-74
2023/10/01 10:53:24;;;;;;;16.60;7.95;;;;;;;;;;5014346;28;20049;-74
2023/10/01 10:55:53;;;;;;;19.42;7.22;;;;;;;;;;5014994;28;20073;-74
2023/10/01 10:58:20;;;;;;;14.52;7.25;;;;;;;;;;5019782;28;20042;-74
2023/10/01 11:00:49;;;;;;;17.27;7.30;;;;;;;;;;5021280;28;20512;-75
2023/10/01 11:03:16;;;;;;;18.15;7.80;;;;;;;;;;5017516;28;20065;-75
2023/10/01 11:05:52;;;;;;;17.45;7.05;;;;;;;;;;5013570;28;20487;-75
2023/10/01 11:08:28;;;;;;;15.82;6.93;;;;;;;;;;5014153;28;20042;-75
2023/10/01 11:10:55;;;;;;;16.50;7.70;;;;;;;;;;5018744;28;20372;-75
2023/10/01 11:13:37;;;;;;;15.93;7.60;;;;;;;;;;5024597;28;20042;-75
2023/10/01 11:16:14;;;;;;;17.95;7.35;;;;;;;;;;5014256;28;20053;-75
2023/10/01 11:18:47;;;;;;;15.52;7.32;;;;;;;;;;5022882;28;20046;-75
2023/10/01 11:21:31;;;;;;;17.85;7.78;;;;;;;;;;5015039;28;20050;-75
2023/10/01 11:24:00;;;;;;;17.77;7.68;;;;;;;;;;5012556;28;20060;-73
2023/10/01 11:26:27;;;;;;;17.05;7.50;;;;;;;;;;5014219;28;20406;-73
2023/10/01 11:28:57;;;;;;;18.17;7.68;;;;;;;;;;5014249;28;20041;-73
2023/10/01 11:31:24;;;;;;;16.83;7.03;;;;;;;;;;5012920;28;20042;-73
2023/10/01 11:33:58;;;;;;;16.77;7.82;;;;;;;;;;5027768;28;20046;-73
2023/10/01 11:36:35;;;;;;;15.07;7.60;;;;;;;;;;5011550;28;20108;-73
2023/10/01 11:39:03;;;;;;;17.98;7.63;;;;;;;;;;5027286;28;20037;-73
2023/10/01 11:41:38;;;;;;;16.67;7.32;;;;;;;;;;5012011;28;20042;-74
2023/10/01 11:44:06;;;;;;;13.88;7.35;;;;;;;;;;5010522;28;20049;-74
2023/10/01 11:46:34;;;;;;;16.75;7.50;;;;;;;;;;5010758;28;20081;-74
2023/10/01 11:49:07;;;;;;;16.13;7.28;;;;;;;;;;5012598;28;20046;-74
2023/10/01 11:54:20;;;;;;;15.30;7.05;;;;;;;;;;5012459;28;20046;-73
2023/10/01 11:56:47;;;;;;;15.70;7.25;;;;;;;;;;5019340;28;20053;-73
2023/10/01 11:59:18;;;;;;;15.55;7.20;;;;;;;;;;5013899;28;20050;-74
2023/10/01 12:01:51;;;;;;;17.42;7.07;;;;;;;;;;5013068;28;20049;-74
2023/10/01 12:04:24;;;;;;;16.52;7.35;;;;;;;;;;5013638;28;20126;-73
2023/10/01 12:06:51;;;;;;;15.88;7.53;;;;;;;;;;5028489;28;20362;-73
2023/10/01 12:09:18;;;;;;;16.38;7.18;;;;;;;;;;5012156;28;20045;-73
2023/10/01 12:12:02;;;;;;;16.45;7.20;;;;;;;;;;5012069;28;20126;-74
2023/10/01 12:14:29;;;;;;;17.33;7.55;;;;;;;;;;5011774;28;20065;-74
2023/10/01 12:16:56;;;;;;;17.23;7.75;;;;;;;;;;5012133;28;20052;-74
2023/10/01 12:19:22;;;;;;;18.02;7.38;;;;;;;;;;5013389;28;20512;-73
2023/10/01 12:22:05;;;;;;;20.95;7.85;;;;;;;;;;5011862;28;20395;-73
2023/10/01 12:24:44;;;;;;;17.98;7.68;;;;;;;;;;5012723;28;20494;-74
2023/10/01 12:27:11;;;;;;;17.08;7.68;;;;;;;;;;5011833;28;20046;-73
2023/10/01 12:29:43;;;;;;;16.58;7.65;;;;;;;;;;5028183;28;20045;-73
2023/10/01 12:32:14;;;;;;;16.70;7.10;;;;;;;;;;5013088;28;20042;-74
2023/10/01 12:34:42;;;;;;;15.77;7.68;;;;;;;;;;5012812;28;20038;-74
2023/10/01 12:37:35;;;;;;;17.00;7.90;;;;;;;;;;5012520;28;20103;-74
2023/10/01 12:40:14;;;;;;;15.90;7.50;;;;;;;;;;5011612;28;20054;-74
2023/10/01 12:42:40;;;;;;;15.18;7.38;;;;;;;;;;5011246;28;20048;-74
2023/10/01 12:45:14;;;;;;;19.75;7.80;;;;;;;;;;5012699;28;20069;-74
2023/10/01 12:47:50;;;;;;;16.33;7.45;;;;;;;;;;5012426;28;20042;-74
2023/10/01 12:50:26;;;;;;;15.48;7.47;;;;;;;;;;5011353;28;20192;-74
2023/10/01 12:53:17;;;;;;;15.95;7.65;;;;;;;;;;5011366;28;20431;-73
2023/10/01 12:55:39;;;;;;;16.58;7.72;;;;;;;;;;5011423;28;20054;-73
2023/10/01 12:58:06;;;;;;;15.15;7.35;;;;;;;;;;5018752;28;20384;-73
2023/10/01 13:00:45;;;;;;;17.17;7.78;;;;;;;;;;5012271;28;20140;-74
2023/10/01 13:03:17;;;;;;;16.88;8.43;;;;;;;;;;5014565;28;20054;-74
2023/10/01 13:05:47;;;;;;;15.35;8.43;;;;;;;;;;5027743;28;20054;-73
2023/10/01 13:08:27;;;;;;;16.15;7.78;;;;;;;;;;5013920;28;20497;-74
2023/10/01 13:10:54;;;;;;;20.08;8.68;;;;;;;;;;5012401;28;20054;-74
2023/10/01 13:13:20;;;;;;;17.30;7.90;;;;;;;;;;5023828;28;20092;-73
2023/10/01 13:15:51;;;;;;;19.50;8.05;;;;;;;;;;5012454;28;20056;-73
2023/10/01 13:18:28;;;;;;;17.88;8.10;;;;;;;;;;5012383;28;20061;-73
2023/10/01 13:23:28;;;;;;;15.68;7.70;;;;;;;;;;5021344;28;20505;-73
2023/10/01 13:26:09;;;;;;;16.60;8.15;;;;;;;;;;5013915;28;20050;-74
2023/10/01 13:28:50;;;;;;;17.02;7.72;;;;;;;;;;5024799;28;20046;-74
2023/10/01 13:34:21;;;;;;;17.50;8.88;;;;;;;;;;5012256;28;20203;-74
2023/10/01 13:39:44;;;;;;;18.35;8.20;;;;;;;;;;5014645;28;20108;-75
2023/10/01 14:09:54;;;;;;;19.05;8.85;;;;;;;;;;5012084;28;20049;-72
2023/10/01 14:12:42;;;;;;;18.60;8.63;;;;;;;;;;5016316;28;20448;-72
2023/10/01 14:15:21;;;;;;;18.98;8.65;;;;;;;;;;5022500;28;20088;-72
2023/10/01 14:17:58;;;;;;;16.10;8.35;;;;;;;;;;5015183;28;20042;-71
2023/10/01 14:23:23;;;;;;;18.65;9.15;;;;;;;;;;5013890;28;20048;-72
2023/10/01 14:25:58;;;;;;;17.38;8.25;;;;;;;;;;5014134;28;20085;-72
2023/10/01 14:28:25;;;;;;;19.40;8.90;;;;;;;;;;5027526;28;20051;-72
2023/10/01 14:30:58;;;;;;;19.40;8.55;;;;;;;;;;5025740;28;20103;-71
2023/10/01 14:33:28;;;;;;;17.95;8.95;;;;;;;;;;5031093;28;20057;-71
2023/10/01 14:36:04;;;;;;;18.45;8.23;;;;;;;;;;5020474;28;20340;-75
2023/10/01 14:38:43;;;;;;;20.52;9.70;;;;;;;;;;5013489;28;20061;-74
2023/10/01 14:41:15;;;;;;;17.95;9.15;;;;;;;;;;5013322;28;20124;-74
2023/10/01 14:43:51;;;;;;;21.58;9.30;;;;;;;;;;5029211;28;20046;-75
2023/10/01 14:46:17;;;;;;;;;;;;;;;;;;5029209;28;20125;-75
2023/10/01 14:48:46;;;;;;;20.05;9.50;;;;;;;;;;5030698;28;20465;-75
2023/10/01 14:51:13;;;;;;;17.45;8.68;;;;;;;;;;5032527;28;20468;-75
2023/10/01 14:53:39;;;;;;;18.40;9.18;;;;;;;;;;5015159;28;20117;-74
2023/10/01 14:56:05;;;;;;;16.13;8.85;;;;;;;;;;5028878;28;20053;-74
2023/10/01 14:58:33;;;;;;;17.67;9.23;;;;;;;;;;5023763;28;20046;-76
2023/10/01 15:00:59;;;;;;;18.98;9.13;;;;;;;;;;5028936;28;20049;-75
2023/10/01 15:03:33;;;;;;;20.55;9.80;;;;;;;;;;5014715;28;20046;-76
2023/10/01 15:06:07;;;;;;;18.00;8.80;;;;;;;;;;5014655;28;20045;-76
2023/10/01 15:08:34;;;;;;;19.38;8.55;;;;;;;;;;5019285;28;20418;-76
2023/10/01 15:11:11;;;;;;;18.52;8.90;;;;;;;;;;5019707;28;20602;-75
2023/10/01 15:13:47;;;;;;;19.52;8.48;;;;;;;;;;5015883;28;20163;-75
2023/10/01 15:16:17;;;;;;;17.80;8.48;;;;;;;;;;5013334;28;20042;-76
2023/10/01 15:18:44;;;;;;;17.73;8.60;;;;;;;;;;5012573;28;20106;-75
2023/10/01 15:21:22;;;;;;;17.55;8.93;;;;;;;;;;5016997;28;20042;-75
2023/10/01 15:23:50;;;;;;;16.92;8.65;;;;;;;;;;5021903;28;20094;-75
2023/10/01 15:26:17;;;;;;;19.77;9.20;;;;;;;;;;5031529;28;20511;-75
2023/10/01 15:28:50;;;;;;;18.42;8.23;;;;;;;;;;5032740;28;20188;-76
2023/10/01 15:31:33;;;;;;;18.55;8.63;;;;;;;;;;5018886;28;20060;-76
2023/10/01 15:34:18;;;;;;;17.65;8.45;;;;;;;;;;5032582;28;20123;-75
2023/10/01 15:36:48;;;;;;;;;;;;;;;;;;5021156;28;20097;-76
2023/10/01 15:39:14;;;;;;;18.73;7.85;;;;;;;;;;5024668;28;19979;-75
2023/10/01 15:41:44;;;;;;;15.88;8.45;;;;;;;;;;5012496;28;20045;-76
2023/10/01 15:44:13;;;;;;;17.15;8.65;;;;;;;;;;5023899;28;20055;-76
2023/10/01 15:46:42;;;;;;;15.55;8.68;;;;;;;;;;5024892;28;20042;-76
2023/10/01 15:49:19;;;;;;;20.27;8.88;;;;;;;;;;5022874;28;20156;-77
2023/10/01 15:51:46;;;;;;;16.83;8.52;;;;;;;;;;5030069;28;20064;-75
2023/10/01 15:54:22;;;;;;;18.17;8.52;;;;;;;;;;5022184;28;20046;-75
2023/10/01 15:56:50;;;;;;;18.02;8.60;;;;;;;;;;5037920;28;20049;-75
2023/10/01 15:59:19;;;;;;;17.42;8.57;;;;;;;;;;5031214;28;20046;-75
2023/10/01 16:01:52;;;;;;;18.17;8.63;;;;;;;;;;5011625;28;20131;-75
2023/10/01 16:04:21;;;;;;;17.77;8.63;;;;;;;;;;5023076;28;20041;-75
2023/10/01 16:07:03;;;;;;;16.13;8.18;;;;;;;;;;5009244;28;20506;-75